sensor_id;sensor_type;location;lat;lon;timestamp;P1;durP1;ratioP1;P2;durP2;ratioP2
22476;SDS011;65006;51.698;-0.292;2023-03-31T00:50:56;14.57;;;1.33;;
22476;SDS011;65006;51.698;-0.292;2023-03-31T00:53:29;6.72;;;1.90;;
22476;SDS011;65006;51.698;-0.292;2023-03-31T00:56:13;19.05;;;1.42;;
22476;SDS011;65006;51.698;-0.292;2023-03-31T01:09:48;16.88;;;2.03;;
22476;SDS011;65006;51.698;-0.292;2023-03-31T01:12:23;8.05;;;1.33;;
22476;SDS011;65006;51.698;-0.292;2023-03-31T01:14:51;10.88;;;1.92;;
22476;SDS011;65006;51.698;-0.292;2023-03-31T01:17:21;4.78;;;1.13;;
22476;SDS011;65006;51.698;-0.292;2023-03-31T01:20:02;8.68;;;1.08;;
22476;SDS011;65006;51.698;-0.292;2023-03-31T01:40:26;8.63;;;1.40;;
22476;SDS011;65006;51.698;-0.292;2023-03-31T01:48:47;2.50;;;1.30;;
22476;SDS011;65006;51.698;-0.292;2023-03-31T01:51:56;7.60;;;1.33;;
22476;SDS011;65006;51.698;-0.292;2023-03-31T02:35:07;8.27;;;1.45;;
22476;SDS011;65006;51.698;-0.292;2023-03-31T03:41:51;15.75;;;2.03;;
22476;SDS011;65006;51.698;-0.292;2023-03-31T03:44:27;17.02;;;2.28;;
22476;SDS011;65006;51.698;-0.292;2023-03-31T03:47:04;16.77;;;2.03;;
22476;SDS011;65006;51.698;-0.292;2023-03-31T03:52:14;18.73;;;2.42;;
22476;SDS011;65006;51.698;-0.292;2023-03-31T05:45:40;11.90;;;1.90;;
22476;SDS011;65006;51.698;-0.292;2023-03-31T05:51:19;14.52;;;3.05;;
22476;SDS011;65006;51.698;-0.292;2023-03-31T05:54:08;15.32;;;2.60;;
22476;SDS011;65006;51.698;-0.292;2023-03-31T05:56:58;15.07;;;2.05;;
22476;SDS011;65006;51.698;-0.292;2023-03-31T06:04:53;12.00;;;2.17;;
22476;SDS011;65006;51.698;-0.292;2023-03-31T06:07:33;19.38;;;1.92;;
22476;SDS011;65006;51.698;-0.292;2023-03-31T06:10:04;11.88;;;1.90;;
22476;SDS011;65006;51.698;-0.292;2023-03-31T06:12:32;17.38;;;2.30;;
22476;SDS011;65006;51.698;-0.292;2023-03-31T06:15:02;21.88;;;2.13;;
22476;SDS011;65006;51.698;-0.292;2023-03-31T07:00:07;9.52;;;1.15;;
22476;SDS011;65006;51.698;-0.292;2023-03-31T07:03:02;16.00;;;1.73;;
22476;SDS011;65006;51.698;-0.292;2023-03-31T07:05:35;9.15;;;1.30;;
22476;SDS011;65006;51.698;-0.292;2023-03-31T07:08:04;12.05;;;1.98;;
22476;SDS011;65006;51.698;-0.292;2023-03-31T07:10:35;7.40;;;1.38;;
22476;SDS011;65006;51.698;-0.292;2023-03-31T07:13:08;13.70;;;1.73;;
22476;SDS011;65006;51.698;-0.292;2023-03-31T07:15:52;17.05;;;2.00;;
22476;SDS011;65006;51.698;-0.292;2023-03-31T07:18:36;12.13;;;2.08;;
22476;SDS011;65006;51.698;-0.292;2023-03-31T07:21:06;13.52;;;2.40;;
22476;SDS011;65006;51.698;-0.292;2023-03-31T07:23:49;15.00;;;2.15;;
22476;SDS011;65006;51.698;-0.292;2023-03-31T07:26:23;12.95;;;1.95;;
22476;SDS011;65006;51.698;-0.292;2023-03-31T07:32:09;10.00;;;1.92;;
22476;SDS011;65006;51.698;-0.292;2023-03-31T07:43:32;14.23;;;2.15;;
22476;SDS011;65006;51.698;-0.292;2023-03-31T07:46:04;26.90;;;2.33;;
22476;SDS011;65006;51.698;-0.292;2023-03-31T07:49:11;12.00;;;1.88;;
22476;SDS011;65006;51.698;-0.292;2023-03-31T07:51:55;13.73;;;2.42;;
22476;SDS011;65006;51.698;-0.292;2023-03-31T07:54:29;19.17;;;2.20;;
22476;SDS011;65006;51.698;-0.292;2023-03-31T07:56:57;17.15;;;2.33;;
22476;SDS011;65006;51.698;-0.292;2023-03-31T07:59:27;16.73;;;2.40;;
22476;SDS011;65006;51.698;-0.292;2023-03-31T08:15:13;19.55;;;2.67;;
22476;SDS011;65006;51.698;-0.292;2023-03-31T10:14:25;11.23;;;0.95;;
22476;SDS011;65006;51.698;-0.292;2023-03-31T10:16:52;5.97;;;0.80;;
22476;SDS011;65006;51.698;-0.292;2023-03-31T10:19:24;6.15;;;1.00;;
22476;SDS011;65006;51.698;-0.292;2023-03-31T10:21:54;3.88;;;0.50;;
22476;SDS011;65006;51.698;-0.292;2023-03-31T10:24:21;2.83;;;0.60;;
22476;SDS011;65006;51.698;-0.292;2023-03-31T10:26:48;1.10;;;0.50;;
22476;SDS011;65006;51.698;-0.292;2023-03-31T10:31:46;3.22;;;0.40;;
22476;SDS011;65006;51.698;-0.292;2023-03-31T10:34:14;4.07;;;0.50;;
22476;SDS011;65006;51.698;-0.292;2023-03-31T10:36:48;1.98;;;0.40;;
22476;SDS011;65006;51.698;-0.292;2023-03-31T10:39:18;10.18;;;0.85;;
22476;SDS011;65006;51.698;-0.292;2023-03-31T10:41:50;1.98;;;0.63;;
22476;SDS011;65006;51.698;-0.292;2023-03-31T10:44:37;2.13;;;0.52;;
22476;SDS011;65006;51.698;-0.292;2023-03-31T10:47:05;0.90;;;0.50;;
22476;SDS011;65006;51.698;-0.292;2023-03-31T10:49:35;1.10;;;0.65;;
22476;SDS011;65006;51.698;-0.292;2023-03-31T10:52:02;0.82;;;0.63;;
22476;SDS011;65006;51.698;-0.292;2023-03-31T10:54:28;2.10;;;0.70;;
22476;SDS011;65006;51.698;-0.292;2023-03-31T10:56:55;3.03;;;0.60;;
22476;SDS011;65006;51.698;-0.292;2023-03-31T11:09:34;3.40;;;0.70;;
22476;SDS011;65006;51.698;-0.292;2023-03-31T11:12:23;5.68;;;0.73;;
22476;SDS011;65006;51.698;-0.292;2023-03-31T11:15:10;3.47;;;0.70;;
22476;SDS011;65006;51.698;-0.292;2023-03-31T11:22:40;5.97;;;1.08;;
22476;SDS011;65006;51.698;-0.292;2023-03-31T11:32:51;2.22;;;0.80;;
22476;SDS011;65006;51.698;-0.292;2023-03-31T11:40:31;1.27;;;0.82;;
22476;SDS011;65006;51.698;-0.292;2023-03-31T11:43:05;1.58;;;0.68;;
22476;SDS011;65006;51.698;-0.292;2023-03-31T11:45:37;5.35;;;0.80;;
22476;SDS011;65006;51.698;-0.292;2023-03-31T11:48:06;1.10;;;0.63;;
22476;SDS011;65006;51.698;-0.292;2023-03-31T11:50:35;1.15;;;0.60;;
22476;SDS011;65006;51.698;-0.292;2023-03-31T11:53:16;1.50;;;0.43;;
22476;SDS011;65006;51.698;-0.292;2023-03-31T11:55:42;1.17;;;0.50;;
22476;SDS011;65006;51.698;-0.292;2023-03-31T12:03:28;3.20;;;0.63;;
22476;SDS011;65006;51.698;-0.292;2023-03-31T12:06:00;1.15;;;0.40;;
22476;SDS011;65006;51.698;-0.292;2023-03-31T12:08:34;1.85;;;0.32;;
22476;SDS011;65006;51.698;-0.292;2023-03-31T12:11:15;0.95;;;0.30;;
22476;SDS011;65006;51.698;-0.292;2023-03-31T12:13:46;0.85;;;0.20;;
22476;SDS011;65006;51.698;-0.292;2023-03-31T12:16:17;0.55;;;0.20;;
22476;SDS011;65006;51.698;-0.292;2023-03-31T12:18:48;1.40;;;0.20;;
22476;SDS011;65006;51.698;-0.292;2023-03-31T12:21:20;0.50;;;0.40;;
22476;SDS011;65006;51.698;-0.292;2023-03-31T12:28:53;2.15;;;0.43;;
22476;SDS011;65006;51.698;-0.292;2023-03-31T12:31:21;0.57;;;0.30;;
22476;SDS011;65006;51.698;-0.292;2023-03-31T12:33:53;1.17;;;0.30;;
22476;SDS011;65006;51.698;-0.292;2023-03-31T12:36:25;1.40;;;0.30;;
22476;SDS011;65006;51.698;-0.292;2023-03-31T12:47:21;1.48;;;0.20;;
22476;SDS011;65006;51.698;-0.292;2023-03-31T12:50:15;0.47;;;0.30;;
22476;SDS011;65006;51.698;-0.292;2023-03-31T12:52:54;0.70;;;0.22;;
22476;SDS011;65006;51.698;-0.292;2023-03-31T12:58:14;1.55;;;0.40;;
22476;SDS011;65006;51.698;-0.292;2023-03-31T13:00:49;1.63;;;0.40;;
22476;SDS011;65006;51.698;-0.292;2023-03-31T13:06:01;0.75;;;0.38;;
22476;SDS011;65006;51.698;-0.292;2023-03-31T13:11:13;1.33;;;0.40;;
22476;SDS011;65006;51.698;-0.292;2023-03-31T13:13:43;3.88;;;0.40;;
22476;SDS011;65006;51.698;-0.292;2023-03-31T13:16:09;2.50;;;0.85;;
22476;SDS011;65006;51.698;-0.292;2023-03-31T13:18:35;3.13;;;0.80;;
22476;SDS011;65006;51.698;-0.292;2023-03-31T13:21:07;1.15;;;0.50;;
22476;SDS011;65006;51.698;-0.292;2023-03-31T13:23:34;0.98;;;0.35;;
22476;SDS011;65006;51.698;-0.292;2023-03-31T13:26:01;3.20;;;0.40;;
22476;SDS011;65006;51.698;-0.292;2023-03-31T13:28:31;3.72;;;0.80;;
22476;SDS011;65006;51.698;-0.292;2023-03-31T13:30:59;4.00;;;0.50;;
22476;SDS011;65006;51.698;-0.292;2023-03-31T13:33:27;1.85;;;0.30;;
22476;SDS011;65006;51.698;-0.292;2023-03-31T13:46:43;0.95;;;0.30;;
22476;SDS011;65006;51.698;-0.292;2023-03-31T13:52:00;0.93;;;0.30;;
22476;SDS011;65006;51.698;-0.292;2023-03-31T13:57:20;2.65;;;0.30;;
22476;SDS011;65006;51.698;-0.292;2023-03-31T14:00:13;0.47;;;0.28;;
22476;SDS011;65006;51.698;-0.292;2023-03-31T14:05:22;0.43;;;0.30;;
22476;SDS011;65006;51.698;-0.292;2023-03-31T14:07:49;1.80;;;0.40;;
22476;SDS011;65006;51.698;-0.292;2023-03-31T14:10:22;1.05;;;0.50;;
22476;SDS011;65006;51.698;-0.292;2023-03-31T14:12:49;2.42;;;0.50;;
22476;SDS011;65006;51.698;-0.292;2023-03-31T14:15:17;1.88;;;0.70;;
22476;SDS011;65006;51.698;-0.292;2023-03-31T14:17:44;0.57;;;0.50;;
22476;SDS011;65006;51.698;-0.292;2023-03-31T14:25:33;1.58;;;0.50;;
22476;SDS011;65006;51.698;-0.292;2023-03-31T14:35:36;1.40;;;0.30;;
22476;SDS011;65006;51.698;-0.292;2023-03-31T14:38:16;0.60;;;0.35;;
22476;SDS011;65006;51.698;-0.292;2023-03-31T14:40:47;1.98;;;0.73;;
22476;SDS011;65006;51.698;-0.292;2023-03-31T14:43:20;1.20;;;0.47;;
22476;SDS011;65006;51.698;-0.292;2023-03-31T14:45:47;1.23;;;0.52;;
22476;SDS011;65006;51.698;-0.292;2023-03-31T14:48:17;1.95;;;0.68;;
22476;SDS011;65006;51.698;-0.292;2023-03-31T14:50:45;1.00;;;0.30;;
22476;SDS011;65006;51.698;-0.292;2023-03-31T14:53:14;0.32;;;0.30;;
22476;SDS011;65006;51.698;-0.292;2023-03-31T14:58:10;2.45;;;0.43;;
22476;SDS011;65006;51.698;-0.292;2023-03-31T15:00:37;0.85;;;0.30;;
22476;SDS011;65006;51.698;-0.292;2023-03-31T15:03:06;0.10;;;0.10;;
22476;SDS011;65006;51.698;-0.292;2023-03-31T15:05:33;1.13;;;0.30;;
22476;SDS011;65006;51.698;-0.292;2023-03-31T15:08:07;0.30;;;0.20;;
22476;SDS011;65006;51.698;-0.292;2023-03-31T15:10:36;0.95;;;0.32;;
22476;SDS011;65006;51.698;-0.292;2023-03-31T15:13:07;0.63;;;0.30;;
22476;SDS011;65006;51.698;-0.292;2023-03-31T15:15:33;0.52;;;0.20;;
22476;SDS011;65006;51.698;-0.292;2023-03-31T15:17:59;0.68;;;0.30;;
22476;SDS011;65006;51.698;-0.292;2023-03-31T15:20:30;0.85;;;0.30;;
22476;SDS011;65006;51.698;-0.292;2023-03-31T15:22:57;0.77;;;0.40;;
22476;SDS011;65006;51.698;-0.292;2023-03-31T15:25:28;0.45;;;0.30;;
22476;SDS011;65006;51.698;-0.292;2023-03-31T15:27:58;1.70;;;0.43;;
22476;SDS011;65006;51.698;-0.292;2023-03-31T15:30:25;2.28;;;0.32;;
22476;SDS011;65006;51.698;-0.292;2023-03-31T15:35:22;2.78;;;0.40;;
22476;SDS011;65006;51.698;-0.292;2023-03-31T15:37:50;2.25;;;0.25;;
22476;SDS011;65006;51.698;-0.292;2023-03-31T15:42:49;0.50;;;0.20;;
22476;SDS011;65006;51.698;-0.292;2023-03-31T15:47:56;0.88;;;0.30;;
22476;SDS011;65006;51.698;-0.292;2023-03-31T15:50:25;0.45;;;0.40;;
22476;SDS011;65006;51.698;-0.292;2023-03-31T15:52:53;0.45;;;0.30;;
22476;SDS011;65006;51.698;-0.292;2023-03-31T15:57:51;0.50;;;0.32;;
22476;SDS011;65006;51.698;-0.292;2023-03-31T16:02:59;0.52;;;0.35;;
22476;SDS011;65006;51.698;-0.292;2023-03-31T16:05:32;0.68;;;0.35;;
22476;SDS011;65006;51.698;-0.292;2023-03-31T16:08:01;1.30;;;0.40;;
22476;SDS011;65006;51.698;-0.292;2023-03-31T16:10:27;3.20;;;0.40;;
22476;SDS011;65006;51.698;-0.292;2023-03-31T16:15:22;1.75;;;0.50;;
22476;SDS011;65006;51.698;-0.292;2023-03-31T16:17:56;0.98;;;0.35;;
22476;SDS011;65006;51.698;-0.292;2023-03-31T16:20:25;1.20;;;0.47;;
22476;SDS011;65006;51.698;-0.292;2023-03-31T16:22:54;1.75;;;0.28;;
22476;SDS011;65006;51.698;-0.292;2023-03-31T16:25:23;0.98;;;0.30;;
22476;SDS011;65006;51.698;-0.292;2023-03-31T16:27:51;1.10;;;0.30;;
22476;SDS011;65006;51.698;-0.292;2023-03-31T16:30:19;2.25;;;0.30;;
22476;SDS011;65006;51.698;-0.292;2023-03-31T16:32:59;1.52;;;0.63;;
22476;SDS011;65006;51.698;-0.292;2023-03-31T16:35:33;0.55;;;0.20;;
22476;SDS011;65006;51.698;-0.292;2023-03-31T16:38:01;0.75;;;0.30;;
22476;SDS011;65006;51.698;-0.292;2023-03-31T16:40:29;0.30;;;0.30;;
22476;SDS011;65006;51.698;-0.292;2023-03-31T16:43:10;0.80;;;0.30;;
22476;SDS011;65006;51.698;-0.292;2023-03-31T16:45:36;0.30;;;0.30;;
22476;SDS011;65006;51.698;-0.292;2023-03-31T16:48:02;0.38;;;0.32;;
22476;SDS011;65006;51.698;-0.292;2023-03-31T16:50:28;0.55;;;0.52;;
22476;SDS011;65006;51.698;-0.292;2023-03-31T16:55:22;1.60;;;0.50;;
22476;SDS011;65006;51.698;-0.292;2023-03-31T16:57:48;0.50;;;0.40;;
22476;SDS011;65006;51.698;-0.292;2023-03-31T17:00:15;0.65;;;0.52;;
22476;SDS011;65006;51.698;-0.292;2023-03-31T17:02:41;2.15;;;0.55;;
22476;SDS011;65006;51.698;-0.292;2023-03-31T17:05:07;1.67;;;0.90;;
22476;SDS011;65006;51.698;-0.292;2023-03-31T17:07:33;2.28;;;0.52;;
22476;SDS011;65006;51.698;-0.292;2023-03-31T17:09:59;0.65;;;0.40;;
22476;SDS011;65006;51.698;-0.292;2023-03-31T17:12:25;2.08;;;0.50;;
22476;SDS011;65006;51.698;-0.292;2023-03-31T17:14:51;0.93;;;0.40;;
22476;SDS011;65006;51.698;-0.292;2023-03-31T17:17:19;0.95;;;0.50;;
22476;SDS011;65006;51.698;-0.292;2023-03-31T17:19:45;1.23;;;0.40;;
22476;SDS011;65006;51.698;-0.292;2023-03-31T17:22:11;3.05;;;0.77;;
22476;SDS011;65006;51.698;-0.292;2023-03-31T17:24:37;0.50;;;0.50;;
22476;SDS011;65006;51.698;-0.292;2023-03-31T17:27:03;0.52;;;0.30;;
22476;SDS011;65006;51.698;-0.292;2023-03-31T17:29:29;0.90;;;0.40;;
22476;SDS011;65006;51.698;-0.292;2023-03-31T17:34:21;1.45;;;0.60;;
22476;SDS011;65006;51.698;-0.292;2023-03-31T17:36:47;1.00;;;0.50;;
22476;SDS011;65006;51.698;-0.292;2023-03-31T17:39:15;0.55;;;0.30;;
22476;SDS011;65006;51.698;-0.292;2023-03-31T17:41:41;2.08;;;0.68;;
22476;SDS011;65006;51.698;-0.292;2023-03-31T17:44:07;0.40;;;0.40;;
22476;SDS011;65006;51.698;-0.292;2023-03-31T17:46:36;1.88;;;0.45;;
22476;SDS011;65006;51.698;-0.292;2023-03-31T17:49:04;3.35;;;0.50;;
22476;SDS011;65006;51.698;-0.292;2023-03-31T17:51:30;1.73;;;0.35;;
22476;SDS011;65006;51.698;-0.292;2023-03-31T17:53:58;4.35;;;0.60;;
22476;SDS011;65006;51.698;-0.292;2023-03-31T17:56:25;0.88;;;0.50;;
22476;SDS011;65006;51.698;-0.292;2023-03-31T17:58:52;2.13;;;0.65;;
22476;SDS011;65006;51.698;-0.292;2023-03-31T18:01:18;2.45;;;0.60;;
22476;SDS011;65006;51.698;-0.292;2023-03-31T18:03:44;3.10;;;0.80;;
22476;SDS011;65006;51.698;-0.292;2023-03-31T18:06:12;1.35;;;0.52;;
22476;SDS011;65006;51.698;-0.292;2023-03-31T18:08:40;0.50;;;0.50;;
22476;SDS011;65006;51.698;-0.292;2023-03-31T18:11:06;1.20;;;0.60;;
22476;SDS011;65006;51.698;-0.292;2023-03-31T18:13:33;0.60;;;0.60;;
22476;SDS011;65006;51.698;-0.292;2023-03-31T18:16:00;1.73;;;0.60;;
22476;SDS011;65006;51.698;-0.292;2023-03-31T18:18:26;0.60;;;0.60;;
22476;SDS011;65006;51.698;-0.292;2023-03-31T18:20:53;0.68;;;0.55;;
22476;SDS011;65006;51.698;-0.292;2023-03-31T18:23:20;3.92;;;0.70;;
22476;SDS011;65006;51.698;-0.292;2023-03-31T18:25:48;1.27;;;0.60;;
22476;SDS011;65006;51.698;-0.292;2023-03-31T18:28:15;0.75;;;0.63;;
22476;SDS011;65006;51.698;-0.292;2023-03-31T18:30:41;0.98;;;0.70;;
22476;SDS011;65006;51.698;-0.292;2023-03-31T18:33:08;1.50;;;0.80;;
22476;SDS011;65006;51.698;-0.292;2023-03-31T18:35:35;1.02;;;0.88;;
22476;SDS011;65006;51.698;-0.292;2023-03-31T18:38:01;3.97;;;1.20;;
22476;SDS011;65006;51.698;-0.292;2023-03-31T18:40:27;3.60;;;2.17;;
22476;SDS011;65006;51.698;-0.292;2023-03-31T18:42:54;11.23;;;2.55;;
22476;SDS011;65006;51.698;-0.292;2023-03-31T18:45:20;2.85;;;1.70;;
22476;SDS011;65006;51.698;-0.292;2023-03-31T18:47:46;2.67;;;1.13;;
22476;SDS011;65006;51.698;-0.292;2023-03-31T18:50:12;4.68;;;1.38;;
22476;SDS011;65006;51.698;-0.292;2023-03-31T18:52:39;6.07;;;1.55;;
22476;SDS011;65006;51.698;-0.292;2023-03-31T18:55:05;3.13;;;1.50;;
22476;SDS011;65006;51.698;-0.292;2023-03-31T18:57:32;20.95;;;1.95;;
22476;SDS011;65006;51.698;-0.292;2023-03-31T18:59:58;2.53;;;1.10;;
22476;SDS011;65006;51.698;-0.292;2023-03-31T19:02:25;4.43;;;1.42;;
22476;SDS011;65006;51.698;-0.292;2023-03-31T19:04:51;5.10;;;1.38;;
22476;SDS011;65006;51.698;-0.292;2023-03-31T19:07:17;9.20;;;1.77;;
22476;SDS011;65006;51.698;-0.292;2023-03-31T19:09:43;5.72;;;1.95;;
22476;SDS011;65006;51.698;-0.292;2023-03-31T19:12:09;8.10;;;2.25;;
22476;SDS011;65006;51.698;-0.292;2023-03-31T19:14:35;2.75;;;1.48;;
22476;SDS011;65006;51.698;-0.292;2023-03-31T19:17:02;3.53;;;1.42;;
22476;SDS011;65006;51.698;-0.292;2023-03-31T19:19:28;5.47;;;1.77;;
22476;SDS011;65006;51.698;-0.292;2023-03-31T19:21:55;6.55;;;2.22;;
22476;SDS011;65006;51.698;-0.292;2023-03-31T19:24:21;10.32;;;1.77;;
22476;SDS011;65006;51.698;-0.292;2023-03-31T19:29:14;3.92;;;1.40;;
22476;SDS011;65006;51.698;-0.292;2023-03-31T19:31:40;3.45;;;1.63;;
22476;SDS011;65006;51.698;-0.292;2023-03-31T19:34:07;4.63;;;1.90;;
22476;SDS011;65006;51.698;-0.292;2023-03-31T19:36:35;3.42;;;1.70;;
22476;SDS011;65006;51.698;-0.292;2023-03-31T19:39:01;4.00;;;1.98;;
22476;SDS011;65006;51.698;-0.292;2023-03-31T19:41:28;5.05;;;1.92;;
22476;SDS011;65006;51.698;-0.292;2023-03-31T19:43:54;3.33;;;2.17;;
22476;SDS011;65006;51.698;-0.292;2023-03-31T19:46:20;5.15;;;2.13;;
22476;SDS011;65006;51.698;-0.292;2023-03-31T19:48:46;11.35;;;2.63;;
22476;SDS011;65006;51.698;-0.292;2023-03-31T19:51:13;4.28;;;2.55;;
22476;SDS011;65006;51.698;-0.292;2023-03-31T19:53:40;5.88;;;2.22;;
22476;SDS011;65006;51.698;-0.292;2023-03-31T19:56:07;6.30;;;2.63;;
22476;SDS011;65006;51.698;-0.292;2023-03-31T19:58:40;6.28;;;2.50;;
22476;SDS011;65006;51.698;-0.292;2023-03-31T20:01:16;3.33;;;2.25;;
22476;SDS011;65006;51.698;-0.292;2023-03-31T20:03:42;3.83;;;2.10;;
22476;SDS011;65006;51.698;-0.292;2023-03-31T20:06:12;5.72;;;2.22;;
22476;SDS011;65006;51.698;-0.292;2023-03-31T20:08:39;7.70;;;2.70;;
22476;SDS011;65006;51.698;-0.292;2023-03-31T20:11:10;8.73;;;2.72;;
22476;SDS011;65006;51.698;-0.292;2023-03-31T20:13:38;5.32;;;2.53;;
22476;SDS011;65006;51.698;-0.292;2023-03-31T20:16:06;6.20;;;3.00;;
22476;SDS011;65006;51.698;-0.292;2023-03-31T20:18:33;5.15;;;2.75;;
22476;SDS011;65006;51.698;-0.292;2023-03-31T20:21:13;5.88;;;2.80;;
22476;SDS011;65006;51.698;-0.292;2023-03-31T20:23:40;9.23;;;3.38;;
22476;SDS011;65006;51.698;-0.292;2023-03-31T20:26:07;5.55;;;3.08;;
22476;SDS011;65006;51.698;-0.292;2023-03-31T20:28:34;6.25;;;2.85;;
22476;SDS011;65006;51.698;-0.292;2023-03-31T20:31:16;6.47;;;3.13;;
22476;SDS011;65006;51.698;-0.292;2023-03-31T20:33:42;5.32;;;2.83;;
22476;SDS011;65006;51.698;-0.292;2023-03-31T20:36:10;6.13;;;2.70;;
22476;SDS011;65006;51.698;-0.292;2023-03-31T20:41:07;5.72;;;3.15;;
22476;SDS011;65006;51.698;-0.292;2023-03-31T20:43:33;6.88;;;2.88;;
22476;SDS011;65006;51.698;-0.292;2023-03-31T20:46:00;5.20;;;3.22;;
22476;SDS011;65006;51.698;-0.292;2023-03-31T20:48:28;7.40;;;3.15;;
22476;SDS011;65006;51.698;-0.292;2023-03-31T20:53:21;10.60;;;3.53;;
22476;SDS011;65006;51.698;-0.292;2023-03-31T20:55:47;10.02;;;4.20;;
22476;SDS011;65006;51.698;-0.292;2023-03-31T20:58:14;7.03;;;3.30;;
22476;SDS011;65006;51.698;-0.292;2023-03-31T21:00:40;8.65;;;3.65;;
22476;SDS011;65006;51.698;-0.292;2023-03-31T21:03:09;9.30;;;3.75;;
22476;SDS011;65006;51.698;-0.292;2023-03-31T21:05:44;7.20;;;3.35;;
22476;SDS011;65006;51.698;-0.292;2023-03-31T21:08:12;4.90;;;2.47;;
22476;SDS011;65006;51.698;-0.292;2023-03-31T21:10:38;6.88;;;2.60;;
22476;SDS011;65006;51.698;-0.292;2023-03-31T21:13:05;6.15;;;2.60;;
22476;SDS011;65006;51.698;-0.292;2023-03-31T21:15:31;9.82;;;2.67;;
22476;SDS011;65006;51.698;-0.292;2023-03-31T21:17:57;5.75;;;3.17;;
22476;SDS011;65006;51.698;-0.292;2023-03-31T21:20:23;11.07;;;3.78;;
22476;SDS011;65006;51.698;-0.292;2023-03-31T21:22:50;4.78;;;3.13;;
22476;SDS011;65006;51.698;-0.292;2023-03-31T21:25:16;7.22;;;3.08;;
22476;SDS011;65006;51.698;-0.292;2023-03-31T21:27:43;6.03;;;2.45;;
22476;SDS011;65006;51.698;-0.292;2023-03-31T21:30:09;7.50;;;2.97;;
22476;SDS011;65006;51.698;-0.292;2023-03-31T21:32:35;5.95;;;3.13;;
22476;SDS011;65006;51.698;-0.292;2023-03-31T21:35:02;6.57;;;2.70;;
22476;SDS011;65006;51.698;-0.292;2023-03-31T21:37:29;6.00;;;2.60;;
22476;SDS011;65006;51.698;-0.292;2023-03-31T21:39:55;6.53;;;3.00;;
22476;SDS011;65006;51.698;-0.292;2023-03-31T21:42:21;5.40;;;2.80;;
22476;SDS011;65006;51.698;-0.292;2023-03-31T21:44:48;5.05;;;2.72;;
22476;SDS011;65006;51.698;-0.292;2023-03-31T21:47:17;7.25;;;3.58;;
22476;SDS011;65006;51.698;-0.292;2023-03-31T21:49:43;5.10;;;3.03;;
22476;SDS011;65006;51.698;-0.292;2023-03-31T21:52:09;6.13;;;3.38;;
22476;SDS011;65006;51.698;-0.292;2023-03-31T21:54:35;8.43;;;3.78;;
22476;SDS011;65006;51.698;-0.292;2023-03-31T21:57:01;5.78;;;2.83;;
22476;SDS011;65006;51.698;-0.292;2023-03-31T21:59:27;7.10;;;3.03;;
22476;SDS011;65006;51.698;-0.292;2023-03-31T22:01:54;7.68;;;3.83;;
22476;SDS011;65006;51.698;-0.292;2023-03-31T22:04:21;7.60;;;3.13;;
22476;SDS011;65006;51.698;-0.292;2023-03-31T22:06:47;6.32;;;3.50;;
22476;SDS011;65006;51.698;-0.292;2023-03-31T22:09:13;7.25;;;3.25;;
22476;SDS011;65006;51.698;-0.292;2023-03-31T22:11:39;7.25;;;3.35;;
22476;SDS011;65006;51.698;-0.292;2023-03-31T22:14:05;6.78;;;2.60;;
22476;SDS011;65006;51.698;-0.292;2023-03-31T22:16:32;8.68;;;3.00;;
22476;SDS011;65006;51.698;-0.292;2023-03-31T22:18:58;9.30;;;3.10;;
22476;SDS011;65006;51.698;-0.292;2023-03-31T22:21:25;7.70;;;3.55;;
22476;SDS011;65006;51.698;-0.292;2023-03-31T22:23:52;9.10;;;3.50;;
22476;SDS011;65006;51.698;-0.292;2023-03-31T22:26:19;7.03;;;3.33;;
22476;SDS011;65006;51.698;-0.292;2023-03-31T22:28:46;7.10;;;3.88;;
22476;SDS011;65006;51.698;-0.292;2023-03-31T22:33:38;7.03;;;3.42;;
22476;SDS011;65006;51.698;-0.292;2023-03-31T22:36:04;11.02;;;4.13;;
22476;SDS011;65006;51.698;-0.292;2023-03-31T22:38:32;7.93;;;3.58;;
22476;SDS011;65006;51.698;-0.292;2023-03-31T22:41:00;10.15;;;4.13;;
22476;SDS011;65006;51.698;-0.292;2023-03-31T22:43:26;7.97;;;3.58;;
22476;SDS011;65006;51.698;-0.292;2023-03-31T22:45:53;10.07;;;4.28;;
22476;SDS011;65006;51.698;-0.292;2023-03-31T22:48:19;11.63;;;4.90;;
22476;SDS011;65006;51.698;-0.292;2023-03-31T22:50:45;15.75;;;5.32;;
22476;SDS011;65006;51.698;-0.292;2023-03-31T22:53:11;12.18;;;5.55;;
22476;SDS011;65006;51.698;-0.292;2023-03-31T22:55:41;9.70;;;5.32;;
22476;SDS011;65006;51.698;-0.292;2023-03-31T22:58:08;12.25;;;5.63;;
22476;SDS011;65006;51.698;-0.292;2023-03-31T23:00:34;11.10;;;5.47;;
22476;SDS011;65006;51.698;-0.292;2023-03-31T23:03:00;9.98;;;5.13;;
22476;SDS011;65006;51.698;-0.292;2023-03-31T23:05:26;11.75;;;5.07;;
22476;SDS011;65006;51.698;-0.292;2023-03-31T23:07:52;11.77;;;5.30;;
22476;SDS011;65006;51.698;-0.292;2023-03-31T23:10:18;10.73;;;5.10;;
22476;SDS011;65006;51.698;-0.292;2023-03-31T23:12:44;8.73;;;4.68;;
22476;SDS011;65006;51.698;-0.292;2023-03-31T23:15:10;7.90;;;5.10;;
22476;SDS011;65006;51.698;-0.292;2023-03-31T23:17:37;9.68;;;4.07;;
22476;SDS011;65006;51.698;-0.292;2023-03-31T23:20:03;8.20;;;4.63;;
22476;SDS011;65006;51.698;-0.292;2023-03-31T23:22:29;6.95;;;3.95;;
22476;SDS011;65006;51.698;-0.292;2023-03-31T23:24:55;5.43;;;3.72;;
22476;SDS011;65006;51.698;-0.292;2023-03-31T23:27:21;5.07;;;3.15;;
22476;SDS011;65006;51.698;-0.292;2023-03-31T23:29:47;5.70;;;2.85;;
22476;SDS011;65006;51.698;-0.292;2023-03-31T23:32:13;5.38;;;2.63;;
22476;SDS011;65006;51.698;-0.292;2023-03-31T23:34:39;4.95;;;3.22;;
22476;SDS011;65006;51.698;-0.292;2023-03-31T23:39:32;3.92;;;2.90;;
22476;SDS011;65006;51.698;-0.292;2023-03-31T23:41:58;4.75;;;2.67;;
22476;SDS011;65006;51.698;-0.292;2023-03-31T23:44:25;5.20;;;2.67;;
22476;SDS011;65006;51.698;-0.292;2023-03-31T23:46:51;4.15;;;3.00;;
22476;SDS011;65006;51.698;-0.292;2023-03-31T23:49:17;4.25;;;2.83;;
22476;SDS011;65006;51.698;-0.292;2023-03-31T23:51:43;10.55;;;3.33;;
22476;SDS011;65006;51.698;-0.292;2023-03-31T23:54:10;5.35;;;3.22;;
22476;SDS011;65006;51.698;-0.292;2023-03-31T23:56:36;3.85;;;2.95;;
22476;SDS011;65006;51.698;-0.292;2023-03-31T23:59:02;5.55;;;3.70;;
